sensor_id;sensor_type;location;lat;lon;timestamp;P1;durP1;ratioP1;P2;durP2;ratioP2
14203;SDS011;7185;51.854;6.622;2024-03-02T00:02:06;3.45;;;1.80;;
14203;SDS011;7185;51.854;6.622;2024-03-02T00:04:37;3.55;;;1.52;;
14203;SDS011;7185;51.854;6.622;2024-03-02T00:07:09;4.28;;;1.38;;
14203;SDS011;7185;51.854;6.622;2024-03-02T00:09:42;4.15;;;1.73;;
14203;SDS011;7185;51.854;6.622;2024-03-02T00:12:14;2.72;;;1.50;;
14203;SDS011;7185;51.854;6.622;2024-03-02T00:14:47;3.33;;;1.65;;
14203;SDS011;7185;51.854;6.622;2024-03-02T00:17:24;2.67;;;1.65;;
14203;SDS011;7185;51.854;6.622;2024-03-02T00:19:56;3.42;;;2.10;;
14203;SDS011;7185;51.854;6.622;2024-03-02T00:22:28;2.88;;;1.38;;
14203;SDS011;7185;51.854;6.622;2024-03-02T00:25:00;4.65;;;1.35;;
14203;SDS011;7185;51.854;6.622;2024-03-02T00:27:32;3.58;;;1.80;;
14203;SDS011;7185;51.854;6.622;2024-03-02T00:30:05;4.35;;;1.60;;
14203;SDS011;7185;51.854;6.622;2024-03-02T00:32:59;2.85;;;1.50;;
14203;SDS011;7185;51.854;6.622;2024-03-02T00:35:31;2.05;;;1.33;;
14203;SDS011;7185;51.854;6.622;2024-03-02T00:38:03;3.30;;;1.60;;
14203;SDS011;7185;51.854;6.622;2024-03-02T00:40:36;5.10;;;1.70;;
14203;SDS011;7185;51.854;6.622;2024-03-02T00:43:10;2.55;;;1.52;;
14203;SDS011;7185;51.854;6.622;2024-03-02T00:45:59;3.47;;;1.50;;
14203;SDS011;7185;51.854;6.622;2024-03-02T00:48:32;3.50;;;1.65;;
14203;SDS011;7185;51.854;6.622;2024-03-02T00:51:05;3.13;;;1.73;;
14203;SDS011;7185;51.854;6.622;2024-03-02T00:53:37;3.08;;;1.40;;
14203;SDS011;7185;51.854;6.622;2024-03-02T00:56:10;4.07;;;1.77;;
14203;SDS011;7185;51.854;6.622;2024-03-02T00:58:42;3.53;;;1.48;;
14203;SDS011;7185;51.854;6.622;2024-03-02T01:01:14;3.22;;;1.50;;
14203;SDS011;7185;51.854;6.622;2024-03-02T01:03:47;3.35;;;1.65;;
14203;SDS011;7185;51.854;6.622;2024-03-02T01:06:20;4.32;;;1.50;;
14203;SDS011;7185;51.854;6.622;2024-03-02T01:08:52;3.05;;;1.40;;
14203;SDS011;7185;51.854;6.622;2024-03-02T01:11:24;2.97;;;1.50;;
14203;SDS011;7185;51.854;6.622;2024-03-02T01:13:55;3.20;;;1.50;;
14203;SDS011;7185;51.854;6.622;2024-03-02T01:16:27;2.92;;;1.40;;
14203;SDS011;7185;51.854;6.622;2024-03-02T01:19:00;4.82;;;1.70;;
14203;SDS011;7185;51.854;6.622;2024-03-02T01:21:32;3.17;;;1.50;;
14203;SDS011;7185;51.854;6.622;2024-03-02T01:24:04;3.50;;;1.70;;
14203;SDS011;7185;51.854;6.622;2024-03-02T01:26:36;3.65;;;1.33;;
14203;SDS011;7185;51.854;6.622;2024-03-02T01:29:07;2.88;;;1.52;;
14203;SDS011;7185;51.854;6.622;2024-03-02T01:31:39;3.92;;;1.65;;
14203;SDS011;7185;51.854;6.622;2024-03-02T01:34:13;3.28;;;1.50;;
14203;SDS011;7185;51.854;6.622;2024-03-02T01:36:45;2.60;;;1.40;;
14203;SDS011;7185;51.854;6.622;2024-03-02T01:39:16;2.97;;;1.50;;
14203;SDS011;7185;51.854;6.622;2024-03-02T01:41:48;2.78;;;1.23;;
14203;SDS011;7185;51.854;6.622;2024-03-02T01:44:20;3.97;;;1.77;;
14203;SDS011;7185;51.854;6.622;2024-03-02T01:46:52;5.50;;;1.70;;
14203;SDS011;7185;51.854;6.622;2024-03-02T01:49:25;4.13;;;1.65;;
14203;SDS011;7185;51.854;6.622;2024-03-02T01:51:56;2.65;;;1.40;;
14203;SDS011;7185;51.854;6.622;2024-03-02T01:54:28;5.70;;;1.85;;
14203;SDS011;7185;51.854;6.622;2024-03-02T01:57:00;3.80;;;1.80;;
14203;SDS011;7185;51.854;6.622;2024-03-02T01:59:32;3.85;;;1.92;;
14203;SDS011;7185;51.854;6.622;2024-03-02T02:02:04;5.47;;;1.80;;
14203;SDS011;7185;51.854;6.622;2024-03-02T02:04:37;5.40;;;1.77;;
14203;SDS011;7185;51.854;6.622;2024-03-02T02:07:09;5.25;;;1.67;;
14203;SDS011;7185;51.854;6.622;2024-03-02T02:09:41;4.40;;;1.77;;
14203;SDS011;7185;51.854;6.622;2024-03-02T02:12:13;5.35;;;1.85;;
14203;SDS011;7185;51.854;6.622;2024-03-02T02:14:47;5.55;;;1.70;;
14203;SDS011;7185;51.854;6.622;2024-03-02T02:17:20;5.70;;;2.25;;
14203;SDS011;7185;51.854;6.622;2024-03-02T02:19:53;4.40;;;1.98;;
14203;SDS011;7185;51.854;6.622;2024-03-02T02:22:26;5.25;;;2.00;;
14203;SDS011;7185;51.854;6.622;2024-03-02T02:24:58;5.25;;;1.83;;
14203;SDS011;7185;51.854;6.622;2024-03-02T02:27:30;4.55;;;2.08;;
14203;SDS011;7185;51.854;6.622;2024-03-02T02:30:02;3.75;;;1.92;;
14203;SDS011;7185;51.854;6.622;2024-03-02T02:32:34;6.93;;;2.03;;
14203;SDS011;7185;51.854;6.622;2024-03-02T02:35:06;6.22;;;3.30;;
14203;SDS011;7185;51.854;6.622;2024-03-02T02:37:40;5.72;;;2.13;;
14203;SDS011;7185;51.854;6.622;2024-03-02T02:40:13;5.40;;;2.60;;
14203;SDS011;7185;51.854;6.622;2024-03-02T02:42:45;5.95;;;2.45;;
14203;SDS011;7185;51.854;6.622;2024-03-02T02:45:16;4.68;;;2.10;;
14203;SDS011;7185;51.854;6.622;2024-03-02T02:47:48;6.88;;;2.75;;
14203;SDS011;7185;51.854;6.622;2024-03-02T02:50:20;6.97;;;2.60;;
14203;SDS011;7185;51.854;6.622;2024-03-02T02:52:53;5.07;;;2.50;;
14203;SDS011;7185;51.854;6.622;2024-03-02T02:55:25;6.63;;;2.72;;
14203;SDS011;7185;51.854;6.622;2024-03-02T02:57:56;5.85;;;2.33;;
14203;SDS011;7185;51.854;6.622;2024-03-02T03:00:28;6.03;;;2.47;;
14203;SDS011;7185;51.854;6.622;2024-03-02T03:03:00;5.53;;;2.22;;
14203;SDS011;7185;51.854;6.622;2024-03-02T03:05:31;4.82;;;2.42;;
14203;SDS011;7185;51.854;6.622;2024-03-02T03:08:05;6.93;;;2.30;;
14203;SDS011;7185;51.854;6.622;2024-03-02T03:10:36;3.30;;;2.08;;
14203;SDS011;7185;51.854;6.622;2024-03-02T03:13:08;4.53;;;1.90;;
14203;SDS011;7185;51.854;6.622;2024-03-02T03:15:40;5.40;;;2.20;;
14203;SDS011;7185;51.854;6.622;2024-03-02T03:18:12;3.42;;;1.70;;
14203;SDS011;7185;51.854;6.622;2024-03-02T03:20:43;3.35;;;1.40;;
14203;SDS011;7185;51.854;6.622;2024-03-02T03:23:17;2.63;;;1.50;;
14203;SDS011;7185;51.854;6.622;2024-03-02T03:25:48;3.05;;;1.55;;
14203;SDS011;7185;51.854;6.622;2024-03-02T03:28:20;3.53;;;1.60;;
14203;SDS011;7185;51.854;6.622;2024-03-02T03:30:52;4.40;;;1.70;;
14203;SDS011;7185;51.854;6.622;2024-03-02T03:33:23;2.55;;;1.40;;
14203;SDS011;7185;51.854;6.622;2024-03-02T03:35:55;2.90;;;1.35;;
14203;SDS011;7185;51.854;6.622;2024-03-02T03:38:28;4.68;;;1.60;;
14203;SDS011;7185;51.854;6.622;2024-03-02T03:41:00;5.07;;;1.50;;
14203;SDS011;7185;51.854;6.622;2024-03-02T03:43:31;3.63;;;1.65;;
14203;SDS011;7185;51.854;6.622;2024-03-02T03:46:03;2.92;;;1.70;;
14203;SDS011;7185;51.854;6.622;2024-03-02T03:48:35;4.47;;;1.60;;
14203;SDS011;7185;51.854;6.622;2024-03-02T03:51:07;4.00;;;1.60;;
14203;SDS011;7185;51.854;6.622;2024-03-02T03:53:40;2.92;;;1.50;;
14203;SDS011;7185;51.854;6.622;2024-03-02T03:56:11;2.90;;;1.33;;
14203;SDS011;7185;51.854;6.622;2024-03-02T03:58:43;2.58;;;1.50;;
14203;SDS011;7185;51.854;6.622;2024-03-02T04:01:15;3.47;;;1.40;;
14203;SDS011;7185;51.854;6.622;2024-03-02T04:03:46;3.30;;;1.38;;
14203;SDS011;7185;51.854;6.622;2024-03-02T04:06:18;2.72;;;1.42;;
14203;SDS011;7185;51.854;6.622;2024-03-02T04:08:51;2.75;;;1.67;;
14203;SDS011;7185;51.854;6.622;2024-03-02T04:11:23;4.25;;;1.27;;
14203;SDS011;7185;51.854;6.622;2024-03-02T04:13:54;2.10;;;1.15;;
14203;SDS011;7185;51.854;6.622;2024-03-02T04:16:26;3.30;;;1.20;;
14203;SDS011;7185;51.854;6.622;2024-03-02T04:18:58;2.45;;;1.15;;
14203;SDS011;7185;51.854;6.622;2024-03-02T04:21:30;2.25;;;1.15;;
14203;SDS011;7185;51.854;6.622;2024-03-02T04:24:04;6.32;;;1.30;;
14203;SDS011;7185;51.854;6.622;2024-03-02T04:26:36;3.63;;;1.25;;
14203;SDS011;7185;51.854;6.622;2024-03-02T04:29:07;4.20;;;1.35;;
14203;SDS011;7185;51.854;6.622;2024-03-02T04:31:39;3.38;;;1.20;;
14203;SDS011;7185;51.854;6.622;2024-03-02T04:34:11;3.95;;;1.40;;
14203;SDS011;7185;51.854;6.622;2024-03-02T04:36:42;3.05;;;1.45;;
14203;SDS011;7185;51.854;6.622;2024-03-02T04:39:15;4.13;;;1.83;;
14203;SDS011;7185;51.854;6.622;2024-03-02T04:41:47;4.07;;;1.67;;
14203;SDS011;7185;51.854;6.622;2024-03-02T04:44:19;3.97;;;1.35;;
14203;SDS011;7185;51.854;6.622;2024-03-02T04:46:50;2.40;;;1.40;;
14203;SDS011;7185;51.854;6.622;2024-03-02T04:49:22;2.60;;;1.48;;
14203;SDS011;7185;51.854;6.622;2024-03-02T04:51:54;3.30;;;1.55;;
14203;SDS011;7185;51.854;6.622;2024-03-02T04:54:28;1.80;;;1.30;;
14203;SDS011;7185;51.854;6.622;2024-03-02T04:56:59;4.10;;;1.30;;
14203;SDS011;7185;51.854;6.622;2024-03-02T04:59:31;1.70;;;1.00;;
14203;SDS011;7185;51.854;6.622;2024-03-02T05:02:03;2.22;;;1.20;;
14203;SDS011;7185;51.854;6.622;2024-03-02T05:04:34;3.53;;;1.15;;
14203;SDS011;7185;51.854;6.622;2024-03-02T05:07:06;5.53;;;1.35;;
14203;SDS011;7185;51.854;6.622;2024-03-02T05:09:39;4.78;;;1.23;;
14203;SDS011;7185;51.854;6.622;2024-03-02T05:12:11;2.80;;;0.98;;
14203;SDS011;7185;51.854;6.622;2024-03-02T05:15:11;4.78;;;1.35;;
14203;SDS011;7185;51.854;6.622;2024-03-02T05:17:43;2.15;;;1.25;;
14203;SDS011;7185;51.854;6.622;2024-03-02T05:20:15;1.80;;;1.00;;
14203;SDS011;7185;51.854;6.622;2024-03-02T05:22:47;4.55;;;1.38;;
14203;SDS011;7185;51.854;6.622;2024-03-02T05:25:21;3.28;;;1.58;;
14203;SDS011;7185;51.854;6.622;2024-03-02T05:27:53;3.60;;;1.70;;
14203;SDS011;7185;51.854;6.622;2024-03-02T05:30:24;2.70;;;1.48;;
14203;SDS011;7185;51.854;6.622;2024-03-02T05:32:56;2.40;;;1.30;;
14203;SDS011;7185;51.854;6.622;2024-03-02T05:35:28;4.82;;;1.80;;
14203;SDS011;7185;51.854;6.622;2024-03-02T05:38:00;3.95;;;1.83;;
14203;SDS011;7185;51.854;6.622;2024-03-02T05:40:33;4.30;;;2.15;;
14203;SDS011;7185;51.854;6.622;2024-03-02T05:43:04;3.38;;;1.90;;
14203;SDS011;7185;51.854;6.622;2024-03-02T05:45:36;4.53;;;2.22;;
14203;SDS011;7185;51.854;6.622;2024-03-02T05:48:08;4.22;;;2.17;;
14203;SDS011;7185;51.854;6.622;2024-03-02T05:50:40;3.58;;;2.05;;
14203;SDS011;7185;51.854;6.622;2024-03-02T05:53:12;4.03;;;1.63;;
14203;SDS011;7185;51.854;6.622;2024-03-02T05:55:45;3.75;;;1.70;;
14203;SDS011;7185;51.854;6.622;2024-03-02T05:58:17;5.00;;;2.05;;
14203;SDS011;7185;51.854;6.622;2024-03-02T06:00:57;3.58;;;1.58;;
14203;SDS011;7185;51.854;6.622;2024-03-02T06:03:29;2.53;;;1.60;;
14203;SDS011;7185;51.854;6.622;2024-03-02T06:06:01;3.15;;;1.90;;
14203;SDS011;7185;51.854;6.622;2024-03-02T06:08:33;4.35;;;1.60;;
14203;SDS011;7185;51.854;6.622;2024-03-02T06:11:06;2.85;;;1.23;;
14203;SDS011;7185;51.854;6.622;2024-03-02T06:13:38;3.55;;;1.55;;
14203;SDS011;7185;51.854;6.622;2024-03-02T06:16:10;3.83;;;1.35;;
14203;SDS011;7185;51.854;6.622;2024-03-02T06:18:41;2.88;;;1.48;;
14203;SDS011;7185;51.854;6.622;2024-03-02T06:21:13;4.80;;;1.40;;
14203;SDS011;7185;51.854;6.622;2024-03-02T06:23:45;3.90;;;1.52;;
14203;SDS011;7185;51.854;6.622;2024-03-02T06:26:18;2.42;;;1.52;;
14203;SDS011;7185;51.854;6.622;2024-03-02T06:28:50;4.13;;;1.60;;
14203;SDS011;7185;51.854;6.622;2024-03-02T06:31:22;3.45;;;1.40;;
14203;SDS011;7185;51.854;6.622;2024-03-02T06:33:53;4.07;;;1.67;;
14203;SDS011;7185;51.854;6.622;2024-03-02T06:36:25;3.33;;;1.63;;
14203;SDS011;7185;51.854;6.622;2024-03-02T06:38:57;2.63;;;1.75;;
14203;SDS011;7185;51.854;6.622;2024-03-02T06:41:30;6.65;;;1.80;;
14203;SDS011;7185;51.854;6.622;2024-03-02T06:44:01;5.55;;;1.50;;
14203;SDS011;7185;51.854;6.622;2024-03-02T06:46:33;3.60;;;1.33;;
14203;SDS011;7185;51.854;6.622;2024-03-02T06:49:05;3.03;;;1.67;;
14203;SDS011;7185;51.854;6.622;2024-03-02T06:51:36;3.55;;;1.85;;
14203;SDS011;7185;51.854;6.622;2024-03-02T06:54:08;3.28;;;2.00;;
14203;SDS011;7185;51.854;6.622;2024-03-02T06:56:41;3.03;;;1.63;;
14203;SDS011;7185;51.854;6.622;2024-03-02T06:59:16;5.22;;;2.25;;
14203;SDS011;7185;51.854;6.622;2024-03-02T07:01:47;5.10;;;2.20;;
14203;SDS011;7185;51.854;6.622;2024-03-02T07:04:19;4.47;;;2.30;;
14203;SDS011;7185;51.854;6.622;2024-03-02T07:06:51;4.82;;;2.28;;
14203;SDS011;7185;51.854;6.622;2024-03-02T07:09:23;4.47;;;2.33;;
14203;SDS011;7185;51.854;6.622;2024-03-02T07:11:57;5.90;;;3.50;;
14203;SDS011;7185;51.854;6.622;2024-03-02T07:14:29;5.40;;;2.20;;
14203;SDS011;7185;51.854;6.622;2024-03-02T07:17:14;4.82;;;2.50;;
14203;SDS011;7185;51.854;6.622;2024-03-02T07:19:46;5.15;;;2.42;;
14203;SDS011;7185;51.854;6.622;2024-03-02T07:22:17;5.38;;;2.60;;
14203;SDS011;7185;51.854;6.622;2024-03-02T07:24:49;5.35;;;2.58;;
14203;SDS011;7185;51.854;6.622;2024-03-02T07:27:22;4.82;;;2.58;;
14203;SDS011;7185;51.854;6.622;2024-03-02T07:29:54;7.60;;;2.85;;
14203;SDS011;7185;51.854;6.622;2024-03-02T07:32:26;4.75;;;2.60;;
14203;SDS011;7185;51.854;6.622;2024-03-02T07:34:57;6.70;;;3.15;;
14203;SDS011;7185;51.854;6.622;2024-03-02T07:37:29;4.78;;;2.70;;
14203;SDS011;7185;51.854;6.622;2024-03-02T07:40:01;6.82;;;2.70;;
14203;SDS011;7185;51.854;6.622;2024-03-02T07:42:34;7.38;;;3.00;;
14203;SDS011;7185;51.854;6.622;2024-03-02T07:45:06;9.00;;;3.10;;
14203;SDS011;7185;51.854;6.622;2024-03-02T07:47:39;7.93;;;3.30;;
14203;SDS011;7185;51.854;6.622;2024-03-02T07:50:10;6.80;;;3.13;;
14203;SDS011;7185;51.854;6.622;2024-03-02T07:52:42;8.57;;;3.65;;
14203;SDS011;7185;51.854;6.622;2024-03-02T07:55:13;9.68;;;3.33;;
14203;SDS011;7185;51.854;6.622;2024-03-02T07:57:48;6.22;;;3.13;;
14203;SDS011;7185;51.854;6.622;2024-03-02T08:00:20;5.65;;;3.22;;
14203;SDS011;7185;51.854;6.622;2024-03-02T08:02:52;6.22;;;3.10;;
14203;SDS011;7185;51.854;6.622;2024-03-02T08:05:24;6.22;;;2.88;;
14203;SDS011;7185;51.854;6.622;2024-03-02T08:07:57;4.90;;;2.83;;
14203;SDS011;7185;51.854;6.622;2024-03-02T08:10:29;10.77;;;3.10;;
14203;SDS011;7185;51.854;6.622;2024-03-02T08:13:02;5.90;;;2.63;;
14203;SDS011;7185;51.854;6.622;2024-03-02T08:15:34;6.22;;;2.75;;
14203;SDS011;7185;51.854;6.622;2024-03-02T08:18:06;9.38;;;2.75;;
14203;SDS011;7185;51.854;6.622;2024-03-02T08:20:38;5.03;;;2.83;;
14203;SDS011;7185;51.854;6.622;2024-03-02T08:23:10;7.07;;;3.30;;
14203;SDS011;7185;51.854;6.622;2024-03-02T08:25:41;8.50;;;3.00;;
14203;SDS011;7185;51.854;6.622;2024-03-02T08:28:14;7.97;;;3.30;;
14203;SDS011;7185;51.854;6.622;2024-03-02T08:30:46;7.00;;;3.88;;
14203;SDS011;7185;51.854;6.622;2024-03-02T08:33:18;7.22;;;2.80;;
14203;SDS011;7185;51.854;6.622;2024-03-02T08:35:50;5.95;;;3.35;;
14203;SDS011;7185;51.854;6.622;2024-03-02T08:38:22;5.50;;;3.35;;
14203;SDS011;7185;51.854;6.622;2024-03-02T08:40:54;6.40;;;2.85;;
14203;SDS011;7185;51.854;6.622;2024-03-02T08:43:27;5.15;;;2.80;;
14203;SDS011;7185;51.854;6.622;2024-03-02T08:45:59;5.47;;;2.67;;
14203;SDS011;7185;51.854;6.622;2024-03-02T08:48:31;5.85;;;2.70;;
14203;SDS011;7185;51.854;6.622;2024-03-02T08:51:02;5.03;;;3.05;;
14203;SDS011;7185;51.854;6.622;2024-03-02T08:53:37;6.03;;;3.10;;
14203;SDS011;7185;51.854;6.622;2024-03-02T08:56:09;5.03;;;2.58;;
14203;SDS011;7185;51.854;6.622;2024-03-02T08:58:44;3.90;;;2.25;;
14203;SDS011;7185;51.854;6.622;2024-03-02T09:01:18;6.40;;;2.40;;
14203;SDS011;7185;51.854;6.622;2024-03-02T09:03:50;4.22;;;2.05;;
14203;SDS011;7185;51.854;6.622;2024-03-02T09:06:22;4.28;;;2.33;;
14203;SDS011;7185;51.854;6.622;2024-03-02T09:08:53;3.92;;;1.85;;
14203;SDS011;7185;51.854;6.622;2024-03-02T09:11:25;3.58;;;1.67;;
14203;SDS011;7185;51.854;6.622;2024-03-02T09:13:58;3.55;;;1.60;;
14203;SDS011;7185;51.854;6.622;2024-03-02T09:16:30;4.15;;;1.65;;
14203;SDS011;7185;51.854;6.622;2024-03-02T09:19:02;2.90;;;1.45;;
14203;SDS011;7185;51.854;6.622;2024-03-02T09:21:34;3.03;;;1.80;;
14203;SDS011;7185;51.854;6.622;2024-03-02T09:24:05;3.63;;;1.77;;
14203;SDS011;7185;51.854;6.622;2024-03-02T09:26:37;4.28;;;1.60;;
14203;SDS011;7185;51.854;6.622;2024-03-02T09:29:10;4.65;;;1.25;;
14203;SDS011;7185;51.854;6.622;2024-03-02T09:31:42;4.28;;;1.85;;
14203;SDS011;7185;51.854;6.622;2024-03-02T09:34:14;3.58;;;1.85;;
14203;SDS011;7185;51.854;6.622;2024-03-02T09:36:46;3.30;;;1.67;;
14203;SDS011;7185;51.854;6.622;2024-03-02T09:39:17;5.47;;;2.03;;
14203;SDS011;7185;51.854;6.622;2024-03-02T09:41:49;3.60;;;1.60;;
14203;SDS011;7185;51.854;6.622;2024-03-02T09:44:22;3.38;;;1.73;;
14203;SDS011;7185;51.854;6.622;2024-03-02T09:46:55;3.65;;;1.40;;
14203;SDS011;7185;51.854;6.622;2024-03-02T09:49:33;6.15;;;1.80;;
14203;SDS011;7185;51.854;6.622;2024-03-02T09:52:06;3.60;;;1.60;;
14203;SDS011;7185;51.854;6.622;2024-03-02T09:54:38;3.55;;;1.27;;
14203;SDS011;7185;51.854;6.622;2024-03-02T09:57:10;3.25;;;1.45;;
14203;SDS011;7185;51.854;6.622;2024-03-02T09:59:43;3.35;;;1.65;;
14203;SDS011;7185;51.854;6.622;2024-03-02T10:02:15;4.10;;;1.50;;
14203;SDS011;7185;51.854;6.622;2024-03-02T10:04:48;3.47;;;1.20;;
14203;SDS011;7185;51.854;6.622;2024-03-02T10:07:20;3.03;;;1.55;;
14203;SDS011;7185;51.854;6.622;2024-03-02T10:09:52;3.25;;;1.73;;
14203;SDS011;7185;51.854;6.622;2024-03-02T10:12:23;3.28;;;1.90;;
14203;SDS011;7185;51.854;6.622;2024-03-02T10:15:03;3.78;;;1.80;;
14203;SDS011;7185;51.854;6.622;2024-03-02T10:17:37;4.72;;;2.13;;
14203;SDS011;7185;51.854;6.622;2024-03-02T10:20:21;3.85;;;1.80;;
14203;SDS011;7185;51.854;6.622;2024-03-02T10:22:54;3.47;;;1.85;;
14203;SDS011;7185;51.854;6.622;2024-03-02T10:25:29;3.40;;;1.67;;
14203;SDS011;7185;51.854;6.622;2024-03-02T10:28:02;3.17;;;1.58;;
14203;SDS011;7185;51.854;6.622;2024-03-02T10:30:37;3.30;;;1.58;;
14203;SDS011;7185;51.854;6.622;2024-03-02T10:33:09;2.63;;;1.45;;
14203;SDS011;7185;51.854;6.622;2024-03-02T10:35:41;5.18;;;1.52;;
14203;SDS011;7185;51.854;6.622;2024-03-02T10:38:13;3.08;;;1.70;;
14203;SDS011;7185;51.854;6.622;2024-03-02T10:40:46;5.05;;;1.80;;
14203;SDS011;7185;51.854;6.622;2024-03-02T10:43:18;3.72;;;1.58;;
14203;SDS011;7185;51.854;6.622;2024-03-02T10:45:52;3.40;;;1.60;;
14203;SDS011;7185;51.854;6.622;2024-03-02T10:48:27;4.85;;;2.08;;
14203;SDS011;7185;51.854;6.622;2024-03-02T10:51:00;3.60;;;1.70;;
14203;SDS011;7185;51.854;6.622;2024-03-02T10:53:32;2.90;;;1.50;;
14203;SDS011;7185;51.854;6.622;2024-03-02T10:56:04;4.00;;;1.80;;
14203;SDS011;7185;51.854;6.622;2024-03-02T10:58:39;4.32;;;1.52;;
14203;SDS011;7185;51.854;6.622;2024-03-02T11:01:12;3.40;;;1.52;;
14203;SDS011;7185;51.854;6.622;2024-03-02T11:03:45;4.60;;;1.60;;
14203;SDS011;7185;51.854;6.622;2024-03-02T11:06:18;3.35;;;1.50;;
14203;SDS011;7185;51.854;6.622;2024-03-02T11:08:50;3.50;;;1.50;;
14203;SDS011;7185;51.854;6.622;2024-03-02T11:11:29;3.03;;;1.60;;
14203;SDS011;7185;51.854;6.622;2024-03-02T11:14:04;3.72;;;1.48;;
14203;SDS011;7185;51.854;6.622;2024-03-02T11:16:43;2.80;;;1.55;;
14203;SDS011;7185;51.854;6.622;2024-03-02T11:19:16;3.17;;;1.30;;
14203;SDS011;7185;51.854;6.622;2024-03-02T11:21:48;2.72;;;1.38;;
14203;SDS011;7185;51.854;6.622;2024-03-02T11:24:29;2.85;;;1.10;;
14203;SDS011;7185;51.854;6.622;2024-03-02T11:27:04;1.98;;;1.05;;
14203;SDS011;7185;51.854;6.622;2024-03-02T11:29:44;6.35;;;1.88;;
14203;SDS011;7185;51.854;6.622;2024-03-02T11:32:19;2.28;;;1.05;;
14203;SDS011;7185;51.854;6.622;2024-03-02T11:34:53;3.65;;;1.52;;
14203;SDS011;7185;51.854;6.622;2024-03-02T11:37:25;2.75;;;1.33;;
14203;SDS011;7185;51.854;6.622;2024-03-02T11:39:57;3.90;;;1.10;;
14203;SDS011;7185;51.854;6.622;2024-03-02T11:42:29;2.22;;;1.10;;
14203;SDS011;7185;51.854;6.622;2024-03-02T11:45:00;3.05;;;1.25;;
14203;SDS011;7185;51.854;6.622;2024-03-02T11:47:33;4.53;;;1.35;;
14203;SDS011;7185;51.854;6.622;2024-03-02T11:50:05;3.90;;;1.40;;
14203;SDS011;7185;51.854;6.622;2024-03-02T11:52:43;4.03;;;1.40;;
14203;SDS011;7185;51.854;6.622;2024-03-02T11:55:17;3.30;;;1.25;;
14203;SDS011;7185;51.854;6.622;2024-03-02T11:57:51;3.28;;;1.20;;
14203;SDS011;7185;51.854;6.622;2024-03-02T12:00:23;3.83;;;1.17;;
14203;SDS011;7185;51.854;6.622;2024-03-02T12:03:01;2.72;;;1.13;;
14203;SDS011;7185;51.854;6.622;2024-03-02T12:05:35;3.67;;;1.20;;
14203;SDS011;7185;51.854;6.622;2024-03-02T12:08:08;3.90;;;1.15;;
14203;SDS011;7185;51.854;6.622;2024-03-02T12:10:40;6.68;;;1.30;;
14203;SDS011;7185;51.854;6.622;2024-03-02T12:13:27;3.00;;;1.35;;
14203;SDS011;7185;51.854;6.622;2024-03-02T12:15:59;3.17;;;1.10;;
14203;SDS011;7185;51.854;6.622;2024-03-02T12:18:40;3.15;;;1.27;;
14203;SDS011;7185;51.854;6.622;2024-03-02T12:21:15;3.08;;;1.48;;
14203;SDS011;7185;51.854;6.622;2024-03-02T12:23:48;2.95;;;1.17;;
14203;SDS011;7185;51.854;6.622;2024-03-02T12:26:23;4.22;;;1.80;;
14203;SDS011;7185;51.854;6.622;2024-03-02T12:28:55;3.67;;;1.85;;
14203;SDS011;7185;51.854;6.622;2024-03-02T12:31:29;4.13;;;1.90;;
14203;SDS011;7185;51.854;6.622;2024-03-02T12:34:02;4.82;;;2.33;;
14203;SDS011;7185;51.854;6.622;2024-03-02T12:36:37;5.72;;;1.90;;
14203;SDS011;7185;51.854;6.622;2024-03-02T12:39:09;5.30;;;1.70;;
14203;SDS011;7185;51.854;6.622;2024-03-02T12:41:41;5.55;;;1.80;;
14203;SDS011;7185;51.854;6.622;2024-03-02T12:44:16;3.90;;;2.20;;
14203;SDS011;7185;51.854;6.622;2024-03-02T12:46:48;5.22;;;1.90;;
14203;SDS011;7185;51.854;6.622;2024-03-02T12:49:22;7.30;;;1.50;;
14203;SDS011;7185;51.854;6.622;2024-03-02T12:51:54;4.18;;;1.50;;
14203;SDS011;7185;51.854;6.622;2024-03-02T12:54:27;5.68;;;1.65;;
14203;SDS011;7185;51.854;6.622;2024-03-02T12:57:00;3.90;;;1.58;;
14203;SDS011;7185;51.854;6.622;2024-03-02T12:59:32;3.22;;;1.50;;
14203;SDS011;7185;51.854;6.622;2024-03-02T13:02:06;6.97;;;1.73;;
14203;SDS011;7185;51.854;6.622;2024-03-02T13:04:39;4.57;;;1.50;;
14203;SDS011;7185;51.854;6.622;2024-03-02T13:07:13;3.83;;;1.20;;
14203;SDS011;7185;51.854;6.622;2024-03-02T13:09:45;4.65;;;1.58;;
14203;SDS011;7185;51.854;6.622;2024-03-02T13:12:17;4.57;;;1.60;;
14203;SDS011;7185;51.854;6.622;2024-03-02T13:14:49;4.40;;;1.80;;
14203;SDS011;7185;51.854;6.622;2024-03-02T13:17:23;4.40;;;1.85;;
14203;SDS011;7185;51.854;6.622;2024-03-02T13:20:00;3.10;;;1.40;;
14203;SDS011;7185;51.854;6.622;2024-03-02T13:22:34;4.20;;;2.38;;
14203;SDS011;7185;51.854;6.622;2024-03-02T13:25:07;8.25;;;2.08;;
14203;SDS011;7185;51.854;6.622;2024-03-02T13:27:45;4.30;;;1.75;;
14203;SDS011;7185;51.854;6.622;2024-03-02T13:30:22;2.28;;;1.33;;
14203;SDS011;7185;51.854;6.622;2024-03-02T13:32:57;4.10;;;1.48;;
14203;SDS011;7185;51.854;6.622;2024-03-02T13:35:34;3.25;;;1.60;;
14203;SDS011;7185;51.854;6.622;2024-03-02T13:38:08;8.18;;;2.70;;
14203;SDS011;7185;51.854;6.622;2024-03-02T13:40:43;4.15;;;1.70;;
14203;SDS011;7185;51.854;6.622;2024-03-02T13:43:21;3.53;;;1.60;;
14203;SDS011;7185;51.854;6.622;2024-03-02T13:45:57;4.95;;;1.63;;
14203;SDS011;7185;51.854;6.622;2024-03-02T13:48:33;3.78;;;1.75;;
14203;SDS011;7185;51.854;6.622;2024-03-02T13:51:07;4.80;;;1.67;;
14203;SDS011;7185;51.854;6.622;2024-03-02T13:53:43;3.33;;;1.60;;
14203;SDS011;7185;51.854;6.622;2024-03-02T13:56:15;4.78;;;1.63;;
14203;SDS011;7185;51.854;6.622;2024-03-02T13:58:49;4.30;;;1.50;;
14203;SDS011;7185;51.854;6.622;2024-03-02T14:01:21;4.53;;;1.67;;
14203;SDS011;7185;51.854;6.622;2024-03-02T14:03:55;2.70;;;1.35;;
14203;SDS011;7185;51.854;6.622;2024-03-02T14:06:30;3.90;;;1.30;;
14203;SDS011;7185;51.854;6.622;2024-03-02T14:09:04;2.90;;;1.50;;
14203;SDS011;7185;51.854;6.622;2024-03-02T14:11:36;4.18;;;1.40;;
14203;SDS011;7185;51.854;6.622;2024-03-02T14:14:09;3.28;;;1.58;;
14203;SDS011;7185;51.854;6.622;2024-03-02T14:16:44;3.13;;;1.52;;
14203;SDS011;7185;51.854;6.622;2024-03-02T14:19:16;2.75;;;1.20;;
14203;SDS011;7185;51.854;6.622;2024-03-02T14:21:50;3.03;;;1.15;;
14203;SDS011;7185;51.854;6.622;2024-03-02T14:24:22;2.45;;;1.17;;
14203;SDS011;7185;51.854;6.622;2024-03-02T14:26:56;3.55;;;1.30;;
14203;SDS011;7185;51.854;6.622;2024-03-02T14:29:36;3.90;;;1.48;;
14203;SDS011;7185;51.854;6.622;2024-03-02T14:32:10;2.70;;;1.30;;
14203;SDS011;7185;51.854;6.622;2024-03-02T14:34:45;3.28;;;1.10;;
14203;SDS011;7185;51.854;6.622;2024-03-02T14:37:18;2.58;;;1.15;;
14203;SDS011;7185;51.854;6.622;2024-03-02T14:39:51;2.42;;;1.02;;
14203;SDS011;7185;51.854;6.622;2024-03-02T14:42:24;1.63;;;1.00;;
14203;SDS011;7185;51.854;6.622;2024-03-02T14:49:38;2.63;;;1.13;;
14203;SDS011;7185;51.854;6.622;2024-03-02T14:52:34;1.85;;;1.25;;
14203;SDS011;7185;51.854;6.622;2024-03-02T14:55:06;2.72;;;1.20;;
14203;SDS011;7185;51.854;6.622;2024-03-02T14:57:38;5.05;;;1.30;;
14203;SDS011;7185;51.854;6.622;2024-03-02T15:00:10;1.67;;;1.20;;
14203;SDS011;7185;51.854;6.622;2024-03-02T15:02:42;2.40;;;1.20;;
14203;SDS011;7185;51.854;6.622;2024-03-02T15:05:15;3.45;;;1.30;;
14203;SDS011;7185;51.854;6.622;2024-03-02T15:07:48;2.55;;;1.33;;
14203;SDS011;7185;51.854;6.622;2024-03-02T15:10:20;2.67;;;1.10;;
14203;SDS011;7185;51.854;6.622;2024-03-02T15:12:52;3.00;;;1.30;;
14203;SDS011;7185;51.854;6.622;2024-03-02T15:15:24;4.10;;;1.20;;
14203;SDS011;7185;51.854;6.622;2024-03-02T15:17:56;3.50;;;1.10;;
14203;SDS011;7185;51.854;6.622;2024-03-02T15:20:28;3.38;;;1.15;;
14203;SDS011;7185;51.854;6.622;2024-03-02T15:23:01;2.85;;;1.38;;
14203;SDS011;7185;51.854;6.622;2024-03-02T15:25:33;3.28;;;1.38;;
14203;SDS011;7185;51.854;6.622;2024-03-02T15:28:05;2.03;;;1.20;;
14203;SDS011;7185;51.854;6.622;2024-03-02T15:30:37;3.00;;;1.23;;
14203;SDS011;7185;51.854;6.622;2024-03-02T15:33:09;3.55;;;1.40;;
14203;SDS011;7185;51.854;6.622;2024-03-02T15:35:40;2.40;;;1.10;;
14203;SDS011;7185;51.854;6.622;2024-03-02T15:38:13;3.38;;;1.55;;
14203;SDS011;7185;51.854;6.622;2024-03-02T15:40:47;2.20;;;1.00;;